Time;durP1;ratioP1;P1;durP2;ratioP2;P2;SDS_P1;SDS_P2;PMS_P1;PMS_P2;Temp;Humidity;BMP_temperature;BMP_pressure;BME280_temperature;BME280_humidity;BME280_pressure;Samples;Min_cycle;Max_cycle;Signal;HPM_P1;HPM_P2
2021/08/02 00:00:39;;;;;;;4.03;2.23;;;;;;;16.77;76.23;100253.94;5007868;28;20250;-76
2021/08/02 00:03:12;;;;;;;3.20;1.60;;;;;;;16.75;76.53;100253.22;5014022;28;20204;-77
2021/08/02 00:05:44;;;;;;;2.47;1.90;;;;;;;16.73;76.12;100244.44;5051308;22;20279;-84
2021/08/02 00:08:14;;;;;;;2.20;1.67;;;;;;;16.71;76.18;100254.50;5062695;28;20198;-84
2021/08/02 00:10:40;;;;;;;3.33;1.97;;;;;;;16.69;76.14;100251.94;5069502;28;20215;-84
2021/08/02 00:13:12;;;;;;;2.10;1.67;;;;;;;16.69;75.94;100251.94;5067864;28;20206;-84
2021/08/02 00:15:40;;;;;;;3.00;2.00;;;;;;;16.70;75.98;100252.81;5051852;28;20234;-84
2021/08/02 00:18:07;;;;;;;4.53;2.17;;;;;;;16.69;75.95;100253.78;5056577;28;20216;-83
2021/08/02 00:20:35;;;;;;;3.90;2.20;;;;;;;16.70;75.72;100258.19;5057800;28;20210;-83
2021/08/02 00:23:06;;;;;;;2.73;1.80;;;;;;;16.69;75.98;100259.16;5054958;28;20834;-83
2021/08/02 00:25:34;;;;;;;3.37;2.17;;;;;;;16.67;75.92;100265.53;5056995;28;20203;-83
2021/08/02 00:28:02;;;;;;;3.83;2.23;;;;;;;16.65;75.88;100259.50;5053500;28;20203;-82
2021/08/02 00:30:30;;;;;;;2.97;2.07;;;;;;;16.62;75.85;100256.19;5057373;28;20201;-83
2021/08/02 00:32:58;;;;;;;2.80;1.90;;;;;;;16.59;75.61;100262.72;5064589;28;20213;-83
2021/08/02 00:35:24;;;;;;;3.30;2.00;;;;;;;16.56;75.78;100260.31;5064600;28;20229;-83
2021/08/02 00:38:02;;;;;;;4.37;2.00;;;;;;;16.54;75.64;100264.97;5052481;28;20205;-83
2021/08/02 00:41:03;;;;;;;2.00;1.70;;;;;;;16.52;75.56;100261.59;5068201;28;20226;-84
2021/08/02 00:44:12;;;;;;;3.00;1.53;;;;;;;16.52;75.59;100266.13;5067432;28;20202;-84
2021/08/02 00:46:41;;;;;;;2.00;1.50;;;;;;;16.48;75.40;100265.53;5018416;28;20260;-84
2021/08/02 00:49:11;;;;;;;2.57;1.70;;;;;;;16.47;75.57;100263.88;5073750;28;20205;-83
2021/08/02 00:51:43;;;;;;;2.73;2.20;;;;;;;16.45;75.56;100259.63;5058986;28;20273;-84
2021/08/02 00:54:10;;;;;;;2.30;2.10;;;;;;;16.42;75.62;100262.59;5058750;28;20205;-83
2021/08/02 00:56:36;;;;;;;4.57;2.87;;;;;;;16.39;75.74;100266.44;5064986;28;20253;-83
2021/08/02 00:59:05;;;;;;;3.10;2.10;;;;;;;16.35;76.06;100264.16;5064347;28;20206;-84
2021/08/02 01:01:34;;;;;;;2.93;2.60;;;;;;;16.32;76.02;100271.50;5054546;28;20210;-84
2021/08/02 01:04:01;;;;;;;2.93;2.47;;;;;;;16.30;76.07;100278.06;5070538;28;20273;-83
2021/08/02 01:06:31;;;;;;;4.53;2.47;;;;;;;16.25;76.11;100277.63;5057142;28;20232;-83
2021/08/02 01:09:01;;;;;;;3.23;2.27;;;;;;;16.22;76.06;100281.44;5059395;28;20201;-83
2021/08/02 01:11:29;;;;;;;5.07;2.97;;;;;;;16.19;76.02;100288.94;5065653;28;20230;-84
2021/08/02 01:13:57;;;;;;;4.33;2.60;;;;;;;16.14;76.35;100283.97;5069715;28;20213;-84
2021/08/02 01:16:26;;;;;;;3.07;2.07;;;;;;;16.11;76.39;100278.06;5043496;28;20245;-84
2021/08/02 01:18:53;;;;;;;2.90;2.20;;;;;;;16.09;76.25;100282.72;5048589;28;20201;-84
2021/08/02 01:21:21;;;;;;;4.13;2.50;;;;;;;16.06;76.37;100286.53;5067217;28;20202;-84
2021/08/02 01:23:49;;;;;;;3.27;2.20;;;;;;;16.05;76.46;100283.97;5051590;28;20206;-84
2021/08/02 01:27:00;;;;;;;3.30;2.00;;;;;;;16.03;76.29;100297.56;5055942;28;20656;-84
2021/08/02 01:30:04;;;;;;;2.57;2.20;;;;;;;15.97;76.17;100290.88;5018176;28;20208;-85
2021/08/02 01:32:31;;;;;;;6.00;2.47;;;;;;;15.94;76.27;100287.66;5070267;28;20209;-84
2021/08/02 01:34:58;;;;;;;3.20;2.30;;;;;;;15.92;76.37;100292.31;5062380;28;20578;-84
2021/08/02 01:37:24;;;;;;;5.03;2.40;;;;;;;15.90;76.28;100297.84;5056488;28;20229;-83
2021/08/02 01:39:54;;;;;;;2.57;2.27;;;;;;;15.87;76.36;100292.72;5062271;28;20583;-82
2021/08/02 01:42:21;;;;;;;5.40;2.83;;;;;;;15.85;76.20;100293.84;5064061;28;20236;-82
2021/08/02 01:44:48;;;;;;;3.27;2.20;;;;;;;15.81;76.18;100298.66;5067026;28;20197;-83
2021/08/02 01:47:20;;;;;;;4.23;2.30;;;;;;;15.80;76.25;100301.47;5067038;28;20308;-83
2021/08/02 01:49:54;;;;;;;5.03;2.50;;;;;;;15.77;76.33;100302.59;5072754;28;20667;-83
2021/08/02 01:52:27;;;;;;;5.77;2.40;;;;;;;15.75;76.32;100307.28;5060401;28;20198;-83
2021/08/02 01:55:00;;;;;;;4.17;2.50;;;;;;;15.73;76.42;100305.72;5067855;28;20225;-84
2021/08/02 01:57:35;;;;;;;3.80;2.60;;;;;;;15.70;76.19;100312.22;5055462;28;20225;-84
2021/08/02 02:00:06;;;;;;;3.77;1.97;;;;;;;15.67;76.21;100319.69;5061380;28;20208;-84
2021/08/02 02:02:35;;;;;;;6.23;2.30;;;;;;;15.65;76.39;100313.59;5057954;28;20202;-83
2021/08/02 02:05:05;;;;;;;3.30;2.17;;;;;;;15.61;76.14;100318.38;5062565;28;20229;-84
2021/08/02 02:07:39;;;;;;;2.83;2.37;;;;;;;15.58;76.47;100319.53;5058406;28;20308;-83
2021/08/02 02:10:09;;;;;;;4.37;2.10;;;;;;;15.54;76.26;100319.91;5051497;28;20285;-86
2021/08/02 02:12:35;;;;;;;3.53;2.53;;;;;;;15.51;76.50;100321.03;5061053;28;20209;-82
2021/08/02 02:15:03;;;;;;;5.17;2.60;;;;;;;15.50;76.74;100323.84;5046749;28;20671;-82
2021/08/02 02:17:34;;;;;;;4.43;2.23;;;;;;;15.48;76.73;100328.50;5055205;28;20236;-82
2021/08/02 02:20:02;;;;;;;4.63;2.53;;;;;;;15.47;76.44;100329.47;5056446;28;20193;-82
2021/08/02 02:22:29;;;;;;;4.17;2.50;;;;;;;15.45;76.66;100332.28;5055965;28;20309;-82
2021/08/02 02:24:56;;;;;;;6.30;2.67;;;;;;;15.41;76.74;100332.69;5035236;28;20207;-82
2021/08/02 02:27:24;;;;;;;5.17;2.90;;;;;;;15.37;76.61;100334.81;5050870;28;20707;-83
2021/08/02 02:29:51;;;;;;;5.93;2.67;;;;;;;15.35;76.59;100333.25;5067581;28;20197;-83
2021/08/02 02:32:20;;;;;;;4.20;2.83;;;;;;;15.29;76.79;100334.63;5061897;28;20196;-83
2021/08/02 02:34:48;;;;;;;6.30;2.77;;;;;;;15.27;76.81;100331.25;5056671;28;20198;-83
2021/08/02 02:37:16;;;;;;;7.07;3.57;;;;;;;15.24;76.72;100328.81;5054164;28;20602;-83
2021/08/02 02:39:43;;;;;;;6.13;3.17;;;;;;;15.20;76.80;100348.88;5063900;28;20213;-83
2021/08/02 02:42:10;;;;;;;5.77;3.60;;;;;;;15.15;76.87;100349.28;5069623;28;20204;-83
2021/08/02 02:44:38;;;;;;;5.57;3.17;;;;;;;15.12;77.14;100349.53;5061948;28;20204;-84
2021/08/02 02:47:07;;;;;;;7.40;4.00;;;;;;;15.09;77.13;100351.63;5059795;28;20225;-83
2021/08/02 02:49:35;;;;;;;5.10;3.53;;;;;;;15.05;77.20;100355.56;5064467;28;20304;-83
2021/08/02 02:52:04;;;;;;;6.67;3.97;;;;;;;15.03;77.29;100353.03;5058362;28;20196;-83
2021/08/02 02:54:32;;;;;;;5.17;4.13;;;;;;;14.99;77.37;100356.09;5068500;28;21281;-83
2021/08/02 02:57:00;;;;;;;5.00;3.40;;;;;;;14.94;77.11;100353.81;5065532;28;20296;-83
2021/08/02 02:59:26;;;;;;;6.10;4.17;;;;;;;14.90;77.27;100355.03;5067926;28;20211;-83
2021/08/02 03:01:55;;;;;;;4.57;3.83;;;;;;;14.86;77.38;100359.00;5058332;28;20204;-83
2021/08/02 03:04:25;;;;;;;6.63;4.37;;;;;;;14.81;77.25;100359.38;5065069;28;20681;-83
2021/08/02 03:06:55;;;;;;;7.47;4.17;;;;;;;14.78;77.08;100366.81;5056218;28;20221;-81
2021/08/02 03:09:24;;;;;;;5.70;3.80;;;;;;;14.72;77.44;100368.19;5063707;28;20949;-81
2021/08/02 03:11:51;;;;;;;4.63;4.10;;;;;;;14.72;77.68;100370.03;5070523;28;20573;-81
2021/08/02 03:14:18;;;;;;;6.53;4.17;;;;;;;14.70;77.69;100374.66;5054093;28;20585;-82
2021/08/02 03:16:45;;;;;;;6.33;4.07;;;;;;;14.69;77.83;100372.97;5067171;28;20670;-82
2021/08/02 03:19:12;;;;;;;6.13;4.90;;;;;;;14.66;77.98;100371.41;5062701;28;20565;-81
2021/08/02 03:21:39;;;;;;;11.70;5.17;;;;;;;14.64;77.46;100370.69;5067333;28;20207;-81
2021/08/02 03:24:13;;;;;;;5.97;4.77;;;;;;;14.60;77.42;100369.25;5058960;28;20213;-81
2021/08/02 03:26:51;;;;;;;7.33;5.03;;;;;;;14.57;77.44;100373.03;5063326;28;20216;-81
2021/08/02 03:29:23;;;;;;;8.00;4.47;;;;;;;14.52;77.23;100369.88;5052665;28;20202;-82
2021/08/02 03:31:51;;;;;;;7.00;4.60;;;;;;;14.49;77.53;100372.84;5055683;28;20205;-82
2021/08/02 03:34:24;;;;;;;13.90;4.20;;;;;;;14.47;77.77;100371.25;5054905;28;20205;-82
2021/08/02 03:36:53;;;;;;;8.67;4.03;;;;;;;14.45;77.48;100379.44;5062890;28;20319;-82
2021/08/02 03:39:23;;;;;;;6.33;3.70;;;;;;;14.44;77.61;100379.56;5045845;28;20208;-81
2021/08/02 03:41:51;;;;;;;4.60;3.80;;;;;;;14.42;77.54;100384.19;5070172;28;20209;-81
2021/08/02 03:44:19;;;;;;;4.60;3.33;;;;;;;14.41;77.98;100382.47;5059528;28;20784;-81
2021/08/02 03:46:46;;;;;;;3.63;2.93;;;;;;;14.37;77.83;100384.53;5059939;28;20281;-81
2021/08/02 03:49:12;;;;;;;6.07;3.33;;;;;;;14.35;77.90;100386.47;5053712;28;20209;-81
2021/08/02 03:51:46;;;;;;;4.97;3.23;;;;;;;14.33;77.85;100396.47;5043571;28;20204;-81
2021/08/02 03:54:14;;;;;;;5.00;3.10;;;;;;;14.30;78.11;100395.91;5060148;28;20197;-83
2021/08/02 03:56:42;;;;;;;3.40;2.60;;;;;;;14.28;78.32;100403.22;5050132;28;20647;-82
2021/08/02 03:59:09;;;;;;;4.47;2.53;;;;;;;14.27;77.97;100401.50;5069165;28;20204;-83
2021/08/02 04:01:38;;;;;;;2.80;2.30;;;;;;;14.26;78.46;100408.69;5049287;28;20205;-83
2021/08/02 04:04:05;;;;;;;3.60;2.60;;;;;;;14.25;78.43;100413.19;5046934;28;20208;-83
2021/08/02 04:06:32;;;;;;;4.37;2.60;;;;;;;14.23;78.08;100414.28;5054356;28;20665;-82
2021/08/02 04:09:00;;;;;;;4.03;2.50;;;;;;;14.22;78.39;100417.94;5044016;28;20673;-82
2021/08/02 04:11:27;;;;;;;5.23;3.00;;;;;;;14.22;78.18;100423.31;5053660;28;20206;-82
2021/08/02 04:13:53;;;;;;;5.57;2.70;;;;;;;14.20;78.14;100422.56;5056379;28;20210;-82
2021/08/02 04:16:20;;;;;;;5.27;3.30;;;;;;;14.19;78.07;100418.19;5069395;28;20225;-84
2021/08/02 04:18:46;;;;;;;4.73;2.80;;;;;;;14.17;77.89;100418.31;5065382;28;20265;-84
2021/08/02 04:21:13;;;;;;;5.20;3.10;;;;;;;14.17;78.28;100412.09;5061549;28;20288;-84
2021/08/02 04:23:40;;;;;;;4.90;3.20;;;;;;;14.13;78.28;100419.56;5062004;28;20205;-80
2021/08/02 04:26:08;;;;;;;6.63;3.40;;;;;;;14.14;78.38;100415.06;5062210;28;20311;-81
2021/08/02 04:28:35;;;;;;;4.70;3.67;;;;;;;14.14;78.24;100417.75;5059945;28;20677;-80
2021/08/02 04:31:02;;;;;;;9.37;4.40;;;;;;;14.14;78.50;100420.41;5052663;28;20209;-80
2021/08/02 04:33:28;;;;;;;7.83;4.37;;;;;;;14.14;78.48;100423.94;5060151;28;20224;-80
2021/08/02 04:35:55;;;;;;;4.67;4.23;;;;;;;14.13;78.35;100419.56;5060110;28;20237;-80
2021/08/02 04:38:21;;;;;;;6.77;3.67;;;;;;;14.13;78.58;100413.34;5062757;28;20222;-83
2021/08/02 04:40:48;;;;;;;4.87;3.83;;;;;;;14.12;78.87;100420.53;5056375;28;20686;-81
2021/08/02 04:43:15;;;;;;;5.93;4.37;;;;;;;14.14;78.76;100428.44;5054700;28;20208;-82
2021/08/02 04:45:42;;;;;;;6.40;4.40;;;;;;;14.14;78.97;100417.75;5047503;28;22026;-82
2021/08/02 04:48:08;;;;;;;6.80;4.47;;;;;;;14.14;78.87;100429.31;5053820;28;20206;-81
2021/08/02 04:50:35;;;;;;;4.87;4.37;;;;;;;14.15;79.15;100420.25;5061280;28;20236;-84
2021/08/02 04:53:02;;;;;;;6.93;4.70;;;;;;;14.16;78.87;100434.50;5056752;28;20292;-84
2021/08/02 04:55:28;;;;;;;5.60;4.20;;;;;;;14.17;79.26;100425.50;5065902;28;20201;-84
2021/08/02 04:57:55;;;;;;;6.47;4.07;;;;;;;14.16;79.04;100431.81;5055043;28;20212;-83
2021/08/02 05:00:23;;;;;;;6.80;4.40;;;;;;;14.18;79.27;100429.88;5053902;28;20308;-84
2021/08/02 05:02:49;;;;;;;6.63;4.57;;;;;;;14.17;78.83;100430.84;5047533;28;20297;-83
2021/08/02 05:05:16;;;;;;;5.43;3.80;;;;;;;14.17;78.79;100434.38;5055073;28;20660;-84
2021/08/02 05:07:42;;;;;;;6.20;3.93;;;;;;;14.17;79.18;100438.88;5060597;28;20217;-83
2021/08/02 05:10:10;;;;;;;8.00;4.60;;;;;;;14.17;78.76;100449.59;5060549;28;20206;-83
2021/08/02 05:12:36;;;;;;;6.33;4.53;;;;;;;14.17;78.90;100439.75;5057661;28;20224;-83
2021/08/02 05:15:05;;;;;;;4.53;3.83;;;;;;;14.19;79.28;100448.50;5057601;28;20206;-83
2021/08/02 05:17:33;;;;;;;8.27;4.03;;;;;;;14.19;78.97;100432.44;5055780;28;20238;-81
2021/08/02 05:20:00;;;;;;;6.57;3.73;;;;;;;14.21;78.98;100437.66;5057673;28;20205;-81
2021/08/02 05:22:26;;;;;;;3.37;3.00;;;;;;;14.24;78.49;100435.59;5061425;28;20210;-81
2021/08/02 05:24:53;;;;;;;4.23;3.20;;;;;;;14.28;78.77;100446.91;5070533;28;20212;-81
2021/08/02 05:27:19;;;;;;;8.67;3.43;;;;;;;14.31;78.56;100448.50;5066595;28;20237;-81
2021/08/02 05:29:46;;;;;;;6.17;3.07;;;;;;;14.35;78.42;100444.56;5076945;28;20209;-82
2021/08/02 05:32:12;;;;;;;4.00;2.70;;;;;;;14.41;78.04;100453.00;5070598;28;20208;-82
2021/08/02 05:34:41;;;;;;;3.57;3.10;;;;;;;14.45;77.71;100450.91;5069691;28;20193;-82
2021/08/02 05:37:08;;;;;;;5.43;3.20;;;;;;;14.49;78.27;100447.88;5069734;28;20239;-83
2021/08/02 05:39:34;;;;;;;3.43;2.50;;;;;;;14.57;78.06;100457.94;5047002;28;20213;-83
2021/08/02 05:42:01;;;;;;;4.30;2.67;;;;;;;14.65;77.66;100457.31;5061812;28;20571;-83
2021/08/02 05:44:27;;;;;;;5.63;3.03;;;;;;;14.71;77.68;100464.81;5062327;28;20697;-83
2021/08/02 05:46:54;;;;;;;4.77;2.60;;;;;;;14.78;77.92;100453.47;5055573;28;20213;-83
2021/08/02 05:49:20;;;;;;;5.00;2.80;;;;;;;14.85;77.84;100459.19;5066045;28;20204;-82
2021/08/02 05:51:49;;;;;;;2.93;2.17;;;;;;;14.97;77.55;100462.66;5056708;28;20202;-83
2021/08/02 05:54:16;;;;;;;4.87;2.80;;;;;;;15.08;77.14;100466.09;5056617;28;20213;-83
2021/08/02 05:56:43;;;;;;;4.30;2.60;;;;;;;15.20;77.07;100461.53;5065376;28;20272;-82
2021/08/02 05:59:09;;;;;;;3.20;1.80;;;;;;;15.33;76.87;100469.38;5047245;28;20197;-82
2021/08/02 06:01:36;;;;;;;6.30;2.30;;;;;;;15.46;76.30;100464.66;5051359;28;20300;-82
2021/08/02 06:04:03;;;;;;;8.13;2.10;;;;;;;15.58;75.77;100471.69;5036636;28;20216;-83
2021/08/02 06:06:29;;;;;;;2.47;2.23;;;;;;;15.70;75.36;100469.75;5035772;28;20230;-83
2021/08/02 06:08:57;;;;;;;3.00;2.10;;;;;;;15.80;75.04;100460.75;5047418;28;20210;-82
2021/08/02 06:11:23;;;;;;;2.80;1.67;;;;;;;15.90;74.60;100464.34;5046523;28;20580;-83
2021/08/02 06:13:50;;;;;;;5.13;1.50;;;;;;;16.03;73.83;100460.56;5050136;28;20205;-83
2021/08/02 06:16:21;;;;;;;4.13;1.67;;;;;;;16.13;73.55;100464.97;5067595;28;20255;-82
2021/08/02 06:18:47;;;;;;;3.13;1.70;;;;;;;16.19;72.36;100472.47;5059655;28;20206;-82
2021/08/02 06:21:14;;;;;;;3.93;1.40;;;;;;;16.30;72.18;100471.53;5048204;28;20197;-83
2021/08/02 06:23:41;;;;;;;2.90;1.50;;;;;;;16.42;71.96;100481.16;5058254;28;20603;-83
2021/08/02 06:26:09;;;;;;;3.80;1.60;;;;;;;16.53;71.03;100478.34;5054864;28;20217;-83
2021/08/02 06:28:35;;;;;;;4.13;1.50;;;;;;;16.61;70.51;100475.81;5046501;28;20221;-84
2021/08/02 06:31:02;;;;;;;2.70;1.33;;;;;;;16.74;70.21;100485.47;5039180;28;20198;-83
2021/08/02 06:33:28;;;;;;;3.23;1.40;;;;;;;16.82;69.84;100480.25;5048531;28;20211;-83
2021/08/02 06:35:55;;;;;;;2.60;1.50;;;;;;;16.86;68.84;100481.66;5044962;28;20258;-83
2021/08/02 06:38:22;;;;;;;4.03;1.70;;;;;;;16.91;68.96;100487.47;5045256;28;20214;-83
2021/08/02 06:40:48;;;;;;;2.97;1.70;;;;;;;16.96;68.48;100487.91;5052255;28;20212;-83
2021/08/02 06:43:16;;;;;;;3.13;1.60;;;;;;;16.92;67.94;100491.88;5043902;28;20207;-83
2021/08/02 06:45:43;;;;;;;4.10;1.73;;;;;;;16.90;68.11;100492.00;5046221;28;20550;-82
2021/08/02 06:48:10;;;;;;;4.83;1.63;;;;;;;16.94;67.95;100489.88;5053705;28;20221;-83
2021/08/02 06:50:36;;;;;;;2.47;1.30;;;;;;;17.00;68.19;100498.25;5047469;28;20214;-83
2021/08/02 06:53:03;;;;;;;4.20;1.40;;;;;;;17.08;67.87;100489.44;5054281;28;20202;-82
2021/08/02 06:55:29;;;;;;;2.50;1.30;;;;;;;17.17;67.54;100488.59;5050721;28;20207;-83
2021/08/02 06:57:57;;;;;;;3.70;1.53;;;;;;;17.24;67.16;100487.03;5048563;28;20231;-82
2021/08/02 07:00:25;;;;;;;3.63;1.50;;;;;;;17.33;66.74;100493.41;5048187;28;20288;-83
2021/08/02 07:02:51;;;;;;;2.97;1.50;;;;;;;17.40;66.48;100482.88;5041805;28;20207;-84
2021/08/02 07:05:20;;;;;;;2.40;1.10;;;;;;;17.47;66.03;100484.00;5049067;28;20214;-85
2021/08/02 07:07:46;;;;;;;3.90;1.30;;;;;;;17.59;66.08;100493.59;5050175;28;20236;-84
2021/08/02 07:10:13;;;;;;;5.87;1.50;;;;;;;17.70;65.62;100498.88;5045066;28;20212;-86
2021/08/02 07:12:40;;;;;;;2.53;1.30;;;;;;;17.81;65.13;100498.69;5044886;28;20214;-84
2021/08/02 07:15:08;;;;;;;2.37;1.00;;;;;;;17.84;64.23;100497.53;5047150;28;20209;-83
2021/08/02 07:17:36;;;;;;;2.13;1.03;;;;;;;17.88;63.94;100493.56;5048726;28;20232;-83
2021/08/02 07:20:02;;;;;;;3.57;0.90;;;;;;;17.96;63.66;100507.13;5044730;28;20205;-83
2021/08/02 07:22:31;;;;;;;3.77;1.00;;;;;;;18.09;63.73;100501.41;5041452;28;20210;-83
2021/08/02 07:24:58;;;;;;;3.53;1.03;;;;;;;18.20;62.76;100512.00;5049680;28;20215;-83
2021/08/02 07:27:24;;;;;;;3.00;0.97;;;;;;;18.29;62.14;100497.59;5036677;28;20682;-82
2021/08/02 07:29:51;;;;;;;2.63;0.90;;;;;;;18.37;61.82;100500.41;5052368;28;20664;-83
2021/08/02 07:32:17;;;;;;;3.57;0.97;;;;;;;18.42;61.06;100502.66;5055174;28;20621;-83
2021/08/02 07:34:45;;;;;;;3.20;0.93;;;;;;;18.46;61.19;100498.63;5058837;28;20549;-82
2021/08/02 07:37:12;;;;;;;8.17;1.37;;;;;;;18.50;60.89;100500.03;5050241;28;20230;-82
2021/08/02 07:39:39;;;;;;;7.43;1.33;;;;;;;18.54;60.59;100498.75;5062602;28;20573;-82
2021/08/02 07:42:06;;;;;;;2.40;1.03;;;;;;;18.57;60.21;100499.28;5062185;28;20205;-82
2021/08/02 07:44:32;;;;;;;10.27;2.20;;;;;;;18.63;60.26;100500.56;5055746;28;20210;-82
2021/08/02 07:46:59;;;;;;;2.30;1.00;;;;;;;18.70;59.72;100505.19;5055951;28;20718;-82
2021/08/02 07:49:26;;;;;;;2.97;1.27;;;;;;;18.76;58.88;100505.59;5055593;28;20208;-81
2021/08/02 07:51:53;;;;;;;2.77;1.03;;;;;;;18.83;59.05;100509.34;5059825;28;20214;-82
2021/08/02 07:54:20;;;;;;;1.80;1.00;;;;;;;18.87;58.44;100514.28;5054810;28;20200;-82
2021/08/02 07:56:46;;;;;;;4.47;0.93;;;;;;;18.94;58.23;100506.44;5054127;28;20638;-82
2021/08/02 07:59:13;;;;;;;2.27;0.97;;;;;;;19.02;58.21;100501.94;5048236;28;20209;-83
2021/08/02 08:01:39;;;;;;;3.20;0.80;;;;;;;19.13;58.07;100511.69;5048713;28;20214;-82
2021/08/02 08:04:06;;;;;;;2.03;1.00;;;;;;;19.24;57.88;100508.72;5043533;28;20683;-83
2021/08/02 08:06:32;;;;;;;5.67;0.87;;;;;;;19.36;57.48;100512.88;5044078;28;20235;-83
2021/08/02 08:09:00;;;;;;;1.27;0.90;;;;;;;19.41;57.12;100513.25;5047058;28;20207;-82
2021/08/02 08:11:27;;;;;;;2.40;1.07;;;;;;;19.43;56.79;100510.41;5053753;28;20218;-82
2021/08/02 08:13:53;;;;;;;1.70;0.70;;;;;;;19.46;56.81;100515.50;5057913;28;20199;-82
2021/08/02 08:16:20;;;;;;;3.20;0.80;;;;;;;19.41;55.71;100515.09;5061524;28;20224;-83
2021/08/02 08:18:47;;;;;;;2.87;0.70;;;;;;;19.36;56.08;100510.16;5060422;28;20242;-83
2021/08/02 08:21:13;;;;;;;2.93;0.83;;;;;;;19.42;56.42;100508.69;5051481;28;20226;-83
2021/08/02 08:23:40;;;;;;;2.03;0.80;;;;;;;19.52;56.33;100508.66;5045909;28;20669;-83
2021/08/02 08:26:08;;;;;;;2.50;1.07;;;;;;;19.66;56.28;100508.06;5056268;28;20235;-81
2021/08/02 08:28:34;;;;;;;2.63;1.00;;;;;;;19.82;56.02;100489.25;5058130;28;20226;-81
2021/08/02 08:31:01;;;;;;;4.47;1.20;;;;;;;19.96;55.58;100495.91;5058985;28;20209;-81
2021/08/02 08:33:27;;;;;;;2.27;0.80;;;;;;;20.07;54.83;100493.75;5066086;28;20214;-81
2021/08/02 08:35:55;;;;;;;2.77;0.90;;;;;;;20.17;54.28;100490.09;5058639;28;20219;-82
2021/08/02 08:38:22;;;;;;;2.70;0.70;;;;;;;20.24;53.58;100485.72;5045380;28;20258;-81
2021/08/02 08:40:49;;;;;;;2.30;0.70;;;;;;;20.25;52.82;100484.69;5047218;28;20212;-83
2021/08/02 08:43:19;;;;;;;2.83;0.83;;;;;;;20.22;52.95;100485.03;5048201;28;20209;-85
2021/08/02 08:45:46;;;;;;;3.50;0.90;;;;;;;20.23;52.86;100492.16;5057802;28;20782;-85
2021/08/02 08:48:13;;;;;;;1.47;0.87;;;;;;;20.25;52.83;100485.53;5050915;28;20365;-86
2021/08/02 08:50:40;;;;;;;1.90;0.90;;;;;;;20.29;52.60;100491.47;5059867;28;20217;-84
2021/08/02 08:53:07;;;;;;;2.73;0.80;;;;;;;20.30;52.19;100494.00;5055195;28;20255;-85
2021/08/02 08:55:34;;;;;;;2.43;0.70;;;;;;;20.25;51.86;100501.75;5045581;28;20247;-84
2021/08/02 08:58:03;;;;;;;3.17;0.70;;;;;;;20.23;51.95;100498.41;5048807;28;20225;-84
2021/08/02 09:00:31;;;;;;;2.93;0.80;;;;;;;20.30;52.26;100504.84;5049118;28;21300;-83
2021/08/02 09:03:09;;;;;;;1.57;0.80;;;;;;;20.45;52.03;100496.97;5048890;28;20205;-84
2021/08/02 09:05:36;;;;;;;2.43;0.93;;;;;;;20.60;51.40;100498.03;5046839;28;20212;-83
2021/08/02 09:08:03;;;;;;;2.60;0.93;;;;;;;20.73;50.97;100500.28;5046399;28;20202;-84
2021/08/02 09:10:30;;;;;;;1.90;0.83;;;;;;;20.85;50.34;100498.06;5049746;28;20204;-84
2021/08/02 09:12:58;;;;;;;1.50;0.83;;;;;;;20.97;49.62;100502.16;5053635;28;20203;-84
2021/08/02 09:15:34;;;;;;;3.57;0.67;;;;;;;21.09;49.57;100495.41;5042430;28;20212;-83
2021/08/02 09:18:02;;;;;;;1.20;0.53;;;;;;;21.17;48.06;100495.38;5047714;28;20597;-83
2021/08/02 09:20:29;;;;;;;2.20;0.80;;;;;;;21.21;47.96;100504.91;5051917;28;20207;-84
2021/08/02 09:23:06;;;;;;;1.10;0.70;;;;;;;21.22;47.85;100497.63;5052987;28;20211;-84
2021/08/02 09:25:32;;;;;;;2.50;0.87;;;;;;;21.25;47.71;100500.00;5046233;28;20199;-83
2021/08/02 09:27:59;;;;;;;1.17;0.50;;;;;;;21.26;47.38;100496.28;5060851;28;20212;-83
2021/08/02 09:30:27;;;;;;;2.63;0.70;;;;;;;21.19;46.90;100506.06;5049522;28;20209;-83
2021/08/02 09:32:56;;;;;;;1.93;0.50;;;;;;;21.09;47.36;100500.81;5049125;28;20209;-83
2021/08/02 09:35:34;;;;;;;3.10;0.77;;;;;;;21.03;47.82;100504.19;5041113;28;20209;-84
2021/08/02 09:38:03;;;;;;;2.20;0.60;;;;;;;20.99;48.24;100509.09;5042267;28;21109;-84
2021/08/02 09:40:37;;;;;;;2.10;0.70;;;;;;;20.95;48.16;100507.75;5045031;28;20208;-84
2021/08/02 09:43:04;;;;;;;2.00;0.57;;;;;;;20.88;48.56;100505.88;5043735;28;20336;-83
2021/08/02 09:45:40;;;;;;;2.73;0.67;;;;;;;20.75;48.92;100509.91;5044350;28;20207;-83
2021/08/02 09:48:08;;;;;;;2.40;0.70;;;;;;;20.68;49.42;100511.59;5043424;28;20205;-83
2021/08/02 09:50:35;;;;;;;1.97;0.77;;;;;;;20.64;49.64;100512.91;5047158;28;20217;-83
2021/08/02 09:53:01;;;;;;;1.97;0.70;;;;;;;20.62;49.85;100522.22;5046483;28;20214;-84
2021/08/02 09:55:28;;;;;;;2.23;0.90;;;;;;;20.59;49.99;100514.44;5046061;28;20578;-83
2021/08/02 09:57:56;;;;;;;1.83;0.80;;;;;;;20.60;49.83;100508.84;5046054;28;20435;-83
2021/08/02 10:00:23;;;;;;;1.10;0.50;;;;;;;20.57;50.03;100506.50;5048302;28;20209;-84
2021/08/02 10:02:51;;;;;;;3.30;1.10;;;;;;;20.55;50.77;100513.94;5047029;28;20216;-84
2021/08/02 10:05:21;;;;;;;2.50;1.10;;;;;;;20.54;50.39;100512.22;5041932;28;20249;-84
2021/08/02 10:07:48;;;;;;;1.27;0.70;;;;;;;20.51;50.77;100506.28;5047316;28;20218;-84
2021/08/02 10:10:17;;;;;;;3.87;0.80;;;;;;;20.45;50.60;100513.19;5049128;28;20199;-84
2021/08/02 10:12:45;;;;;;;2.10;0.60;;;;;;;20.42;50.40;100516.25;5048874;28;20200;-84
2021/08/02 10:15:17;;;;;;;2.40;1.00;;;;;;;20.40;50.72;100515.56;5045317;28;20204;-85
2021/08/02 10:17:50;;;;;;;2.77;0.60;;;;;;;20.39;50.88;100522.00;5048799;28;20239;-85
2021/08/02 10:20:25;;;;;;;1.97;0.70;;;;;;;20.35;50.83;100526.00;5047531;28;20207;-84
2021/08/02 10:22:52;;;;;;;4.77;0.80;;;;;;;20.30;51.23;100517.50;5054781;28;20268;-84
2021/08/02 10:25:31;;;;;;;2.97;0.80;;;;;;;20.24;51.76;100510.06;5059554;28;20718;-84
2021/08/02 10:28:06;;;;;;;2.53;0.90;;;;;;;20.25;51.85;100511.72;5059202;28;20210;-84
2021/08/02 10:30:32;;;;;;;2.70;0.77;;;;;;;20.29;51.74;100516.66;5052989;28;20675;-84
2021/08/02 10:32:59;;;;;;;3.13;1.00;;;;;;;20.35;52.31;100509.75;5053717;28;20848;-84
2021/08/02 10:35:36;;;;;;;4.20;0.90;;;;;;;20.47;51.87;100507.63;5049840;28;20236;-85
2021/08/02 10:38:05;;;;;;;1.90;0.90;;;;;;;20.56;51.95;100510.22;5044244;28;20273;-85
2021/08/02 10:40:47;;;;;;;1.10;0.73;;;;;;;20.66;52.05;100510.06;5052999;28;20234;-86
2021/08/02 10:43:14;;;;;;;2.50;1.10;;;;;;;20.72;51.38;100506.69;5054936;28;20208;-84
2021/08/02 10:45:47;;;;;;;2.87;1.13;;;;;;;20.75;51.33;100509.06;5045977;28;20209;-84
2021/08/02 10:48:22;;;;;;;2.93;0.97;;;;;;;20.76;50.77;100505.34;5053639;28;20285;-85
2021/08/02 10:50:51;;;;;;;2.23;1.20;;;;;;;20.75;50.63;100507.22;5051872;28;20209;-84
2021/08/02 10:53:18;;;;;;;2.83;0.90;;;;;;;20.80;50.81;100506.69;5045375;28;20322;-83
2021/08/02 10:55:47;;;;;;;1.83;0.90;;;;;;;20.93;50.29;100492.69;5046917;28;20236;-84
2021/08/02 10:58:24;;;;;;;1.00;0.90;;;;;;;21.04;49.86;100498.59;5048724;28;20310;-83
2021/08/02 11:00:55;;;;;;;2.03;0.90;;;;;;;21.17;49.83;100505.38;5048098;28;20199;-83
2021/08/02 11:03:29;;;;;;;2.83;1.05;;;;;;;21.32;49.46;100499.13;5049387;28;20208;-83
2021/08/02 11:05:58;;;;;;;2.73;0.90;;;;;;;21.47;48.27;100494.75;5055070;28;20676;-84
2021/08/02 11:08:25;;;;;;;2.53;0.77;;;;;;;21.60;48.51;100502.34;5071772;28;20207;-84
2021/08/02 11:10:52;;;;;;;2.10;0.80;;;;;;;21.70;47.62;100503.00;5054150;28;20566;-84
2021/08/02 11:13:25;;;;;;;1.63;0.65;;;;;;;21.80;47.15;100490.09;5063536;28;20208;-84
2021/08/02 11:15:51;;;;;;;3.95;0.82;;;;;;;21.89;46.42;100498.19;5050421;28;20278;-84
2021/08/02 11:18:24;;;;;;;2.90;0.70;;;;;;;21.95;46.14;100501.06;5046256;28;20236;-84
2021/08/02 11:20:51;;;;;;;3.03;0.90;;;;;;;21.99;45.22;100501.59;5049986;28;20217;-84
2021/08/02 11:23:32;;;;;;;1.63;0.73;;;;;;;22.00;45.04;100493.31;5056906;28;20208;-83
2021/08/02 11:26:09;;;;;;;1.33;0.77;;;;;;;22.02;44.83;100496.69;5047583;28;20255;-84
2021/08/02 11:28:40;;;;;;;1.70;0.70;;;;;;;22.02;45.00;100499.41;5054107;28;20205;-83
2021/08/02 11:31:08;;;;;;;1.42;0.70;;;;;;;22.07;44.95;100490.72;5044538;28;20564;-84